createdAt,value
2016-07-21T00:00:31.907Z,22.02
2016-07-21T00:01:32.036Z,21.98
2016-07-21T00:02:31.885Z,21.73
2016-07-21T00:03:32.088Z,21.83
2016-07-21T00:04:31.907Z,21.91
2016-07-21T00:05:31.971Z,21.83
2016-07-21T00:06:31.885Z,21.8
2016-07-21T00:07:31.907Z,21.82
2016-07-21T00:08:31.933Z,21.77
2016-07-21T00:09:31.887Z,21.58
2016-07-21T00:10:31.918Z,21.51
2016-07-21T00:11:31.895Z,21.66
2016-07-21T00:12:31.991Z,21.77
2016-07-21T00:13:31.909Z,21.85
2016-07-21T00:14:32.072Z,21.91
2016-07-21T00:15:31.893Z,21.79
2016-07-21T00:16:32.043Z,22.04
2016-07-21T00:17:31.901Z,21.95
2016-07-21T00:18:31.892Z,21.95
2016-07-21T00:19:31.906Z,21.82
2016-07-21T00:20:31.946Z,21.79
2016-07-21T00:21:31.930Z,21.82
2016-07-21T00:22:31.902Z,21.77
2016-07-21T00:23:31.938Z,21.79
2016-07-21T00:24:31.966Z,21.8
2016-07-21T00:25:31.976Z,21.72
2016-07-21T00:26:31.942Z,21.66
2016-07-21T00:27:32.011Z,21.62
2016-07-21T00:28:31.950Z,21.62
2016-07-21T00:29:31.899Z,21.55
2016-07-21T00:30:31.983Z,21.55
2016-07-21T00:31:31.931Z,21.66
2016-07-21T00:32:31.923Z,21.7
2016-07-21T00:33:31.956Z,21.8
2016-07-21T00:34:31.931Z,21.96
2016-07-21T00:35:31.919Z,21.95
2016-07-21T00:36:31.928Z,22.06
2016-07-21T00:37:32.213Z,22.13
2016-07-21T00:38:31.952Z,21.93
2016-07-21T00:39:31.985Z,22.02
2016-07-21T00:40:31.912Z,21.92
2016-07-21T00:41:32.638Z,21.99
2016-07-21T00:42:31.971Z,21.8
2016-07-21T00:43:31.932Z,21.8
2016-07-21T00:44:31.940Z,21.75
2016-07-21T00:45:31.928Z,21.6
2016-07-21T00:46:32.082Z,21.54
2016-07-21T00:47:31.895Z,21.46
2016-07-21T00:48:32.020Z,21.6
2016-07-21T00:49:31.930Z,21.61
2016-07-21T00:50:32.092Z,21.76
2016-07-21T00:51:32.157Z,21.66
2016-07-21T00:52:32.062Z,21.69
2016-07-21T00:53:33.268Z,21.61
2016-07-21T00:54:32.223Z,21.64
2016-07-21T00:55:32.556Z,21.57
2016-07-21T00:56:31.943Z,21.7
2016-07-21T00:57:31.923Z,21.72
2016-07-21T00:58:31.939Z,21.83
2016-07-21T00:59:32.924Z,21.73
2016-07-21T01:00:31.937Z,21.76
2016-07-21T01:01:31.949Z,21.62
2016-07-21T01:02:32.264Z,21.7
2016-07-21T01:03:33.013Z,21.62
2016-07-21T01:04:32.072Z,21.5
2016-07-21T01:05:32.111Z,21.58
2016-07-21T01:06:32.351Z,21.6
2016-07-21T01:07:31.963Z,21.6
2016-07-21T01:08:31.935Z,21.5
2016-07-21T01:09:31.927Z,21.51
2016-07-21T01:10:31.952Z,21.62
2016-07-21T01:11:31.966Z,21.54
2016-07-21T01:12:32.073Z,21.58
2016-07-21T01:13:32.475Z,21.66
2016-07-21T01:14:31.898Z,21.61
2016-07-21T01:15:31.989Z,21.55
2016-07-21T01:16:32.095Z,21.55
2016-07-21T01:17:32.381Z,21.57
2016-07-21T01:18:32.070Z,21.7
2016-07-21T01:19:31.927Z,21.66
2016-07-21T01:20:32.937Z,21.72
2016-07-21T01:21:31.982Z,21.62
2016-07-21T01:22:32.160Z,21.62
2016-07-21T01:23:31.978Z,21.64
2016-07-21T01:24:31.947Z,21.7
2016-07-21T01:25:32.054Z,21.6
2016-07-21T01:26:31.941Z,21.57
2016-07-21T01:27:31.938Z,21.67
2016-07-21T01:28:31.944Z,21.58
2016-07-21T01:29:31.974Z,21.57
2016-07-21T01:30:31.953Z,21.6
2016-07-21T01:31:31.971Z,21.48
2016-07-21T01:32:31.966Z,21.43
2016-07-21T01:33:31.941Z,21.43
2016-07-21T01:34:31.951Z,21.45
2016-07-21T01:35:31.941Z,21.57
2016-07-21T01:36:31.969Z,21.6
2016-07-21T01:37:31.929Z,21.57
2016-07-21T01:38:31.935Z,21.72
2016-07-21T01:39:31.958Z,21.67
2016-07-21T01:40:31.970Z,21.76
2016-07-21T01:41:31.973Z,21.64
2016-07-21T01:42:31.941Z,21.77
2016-07-21T01:43:31.971Z,21.77
2016-07-21T01:44:31.966Z,21.67
2016-07-21T01:45:31.956Z,21.61
2016-07-21T01:46:32.490Z,21.67
2016-07-21T01:47:31.969Z,21.55
2016-07-21T01:48:31.974Z,21.39
2016-07-21T01:49:31.970Z,21.43
2016-07-21T01:50:31.971Z,21.48
2016-07-21T01:51:31.972Z,21.45
2016-07-21T01:52:31.982Z,21.37
2016-07-21T01:53:31.949Z,21.3
2016-07-21T01:54:31.962Z,21.33
2016-07-21T01:55:31.964Z,21.3
2016-07-21T01:56:31.970Z,21.3
2016-07-21T01:57:31.982Z,21.21
2016-07-21T01:58:31.974Z,21.36
2016-07-21T01:59:31.971Z,21.43
2016-07-21T02:00:31.952Z,21.36
2016-07-21T02:01:31.992Z,21.32
2016-07-21T02:02:31.939Z,21.36
2016-07-21T02:03:32.957Z,21.54
2016-07-21T02:04:31.990Z,21.6
2016-07-21T02:05:31.951Z,21.54
2016-07-21T02:06:31.944Z,21.62
2016-07-21T02:07:31.968Z,21.6
2016-07-21T02:08:31.929Z,21.6
2016-07-21T02:09:31.983Z,21.6
2016-07-21T02:10:31.975Z,21.67
2016-07-21T02:11:32.656Z,21.61
2016-07-21T02:12:31.947Z,21.7
2016-07-21T02:13:31.981Z,21.77
2016-07-21T02:14:31.946Z,21.7
2016-07-21T02:15:31.954Z,21.62
2016-07-21T02:16:32.831Z,21.61
2016-07-21T02:17:31.964Z,21.62
2016-07-21T02:18:31.977Z,21.67
2016-07-21T02:19:31.918Z,21.73
2016-07-21T02:20:31.985Z,21.73
2016-07-21T02:21:31.961Z,21.77
2016-07-21T02:22:32.659Z,21.73
2016-07-21T02:23:31.975Z,21.69
2016-07-21T02:24:31.983Z,21.67
2016-07-21T02:25:31.970Z,21.52
2016-07-21T02:26:31.946Z,21.55
2016-07-21T02:27:31.954Z,21.58
2016-07-21T02:28:31.966Z,21.46
2016-07-21T02:29:31.963Z,21.55
2016-07-21T02:30:31.970Z,21.48
2016-07-21T02:31:31.974Z,21.64
2016-07-21T02:32:31.983Z,21.61
2016-07-21T02:33:31.977Z,21.62
2016-07-21T02:34:31.997Z,21.62
2016-07-21T02:35:31.961Z,21.7
2016-07-21T02:36:31.980Z,21.57
2016-07-21T02:37:31.959Z,21.61
2016-07-21T02:38:31.987Z,21.5
2016-07-21T02:39:31.971Z,21.6
2016-07-21T02:40:31.993Z,21.6
2016-07-21T02:41:31.971Z,21.64
2016-07-21T02:42:31.972Z,21.66
2016-07-21T02:43:31.962Z,21.57
2016-07-21T02:44:31.977Z,21.48
2016-07-21T02:45:32.061Z,21.45
2016-07-21T02:46:31.996Z,21.58
2016-07-21T02:47:32.003Z,21.6
2016-07-21T02:48:32.005Z,21.6
2016-07-21T02:49:32.006Z,21.76
2016-07-21T02:50:31.959Z,21.67
2016-07-21T02:51:32.028Z,21.69
2016-07-21T02:52:32.001Z,21.69
2016-07-21T02:53:31.961Z,21.67
2016-07-21T02:54:32.002Z,21.64
2016-07-21T02:55:31.974Z,21.72
2016-07-21T02:56:32.014Z,21.69
2016-07-21T02:57:31.995Z,21.73
2016-07-21T02:58:32.030Z,21.6
2016-07-21T02:59:32.005Z,21.73
2016-07-21T03:00:31.992Z,21.64
2016-07-21T03:01:32.000Z,21.83
2016-07-21T03:02:31.987Z,21.7
2016-07-21T03:03:32.018Z,21.61
2016-07-21T03:04:31.977Z,21.67
2016-07-21T03:05:31.974Z,21.58
2016-07-21T03:06:31.994Z,21.6
2016-07-21T03:07:31.996Z,21.62
2016-07-21T03:08:32.045Z,21.61
2016-07-21T03:09:31.982Z,21.46
2016-07-21T03:10:31.985Z,21.42
2016-07-21T03:11:31.976Z,21.33
2016-07-21T03:12:32.038Z,21.3
2016-07-21T03:13:32.008Z,21.2
2016-07-21T03:14:31.998Z,21.21
2016-07-21T03:15:32.017Z,21.24
2016-07-21T03:16:31.991Z,21.35
2016-07-21T03:17:32.013Z,21.5
2016-07-21T03:18:32.021Z,21.5
2016-07-21T03:19:32.024Z,21.43
2016-07-21T03:20:32.002Z,21.37
2016-07-21T03:21:32.097Z,21.43
2016-07-21T03:22:32.050Z,21.46
2016-07-21T03:23:32.029Z,21.54
2016-07-21T03:24:32.015Z,21.43
2016-07-21T03:25:32.000Z,21.48
2016-07-21T03:26:32.007Z,21.5
2016-07-21T03:27:31.977Z,21.39
2016-07-21T03:28:32.031Z,21.48
2016-07-21T03:29:32.031Z,21.48
2016-07-21T03:30:32.041Z,21.48
2016-07-21T03:31:32.020Z,21.36
2016-07-21T03:32:32.000Z,21.33
2016-07-21T03:33:32.021Z,21.27
2016-07-21T03:34:32.006Z,21.4
2016-07-21T03:35:33.026Z,21.5
2016-07-21T03:36:32.025Z,21.48
2016-07-21T03:37:32.053Z,21.45
2016-07-21T03:38:32.021Z,21.4
2016-07-21T03:39:32.048Z,21.35
2016-07-21T03:40:32.127Z,21.5
2016-07-21T03:41:32.043Z,21.54
2016-07-21T03:42:31.985Z,21.54
2016-07-21T03:43:32.034Z,21.43
2016-07-21T03:44:32.057Z,21.4
2016-07-21T03:45:32.040Z,21.45
2016-07-21T03:46:32.041Z,21.43
2016-07-21T03:47:32.011Z,21.55
2016-07-21T03:48:32.047Z,21.54
2016-07-21T03:49:32.054Z,21.52
2016-07-21T03:50:32.015Z,21.52
2016-07-21T03:51:32.012Z,21.55
2016-07-21T03:52:31.991Z,21.6
2016-07-21T03:53:32.005Z,21.43
2016-07-21T03:54:31.992Z,21.48
2016-07-21T03:55:32.037Z,21.37
2016-07-21T03:56:32.061Z,21.39
2016-07-21T03:57:32.017Z,21.42
2016-07-21T03:58:32.072Z,21.36
2016-07-21T03:59:31.982Z,21.3
2016-07-21T04:00:32.033Z,21.37
2016-07-21T04:01:32.015Z,21.43
2016-07-21T04:02:33.280Z,21.57
2016-07-21T04:03:32.006Z,21.48
2016-07-21T04:04:32.031Z,21.57
2016-07-21T04:05:32.034Z,21.48
2016-07-21T04:06:32.240Z,21.45
2016-07-21T04:07:32.047Z,21.58
2016-07-21T04:08:32.062Z,21.52
2016-07-21T04:09:32.045Z,21.66
2016-07-21T04:10:32.078Z,21.7
2016-07-21T04:22:50.046Z,21.57
2016-07-21T04:23:49.979Z,21.72
2016-07-21T04:24:49.986Z,21.69
2016-07-21T04:25:50.008Z,21.73
2016-07-21T04:26:50.018Z,21.77
2016-07-21T04:27:50.019Z,21.62
2016-07-21T04:28:50.005Z,21.73
2016-07-21T04:41:50.758Z,22.81
2016-07-21T04:42:07.826Z,22.91
2016-07-21T04:43:07.805Z,22.91
2016-07-21T04:44:07.791Z,23.06
2016-07-21T04:45:07.822Z,23.13
2016-07-21T04:46:07.795Z,23.2
2016-07-21T04:47:07.766Z,23.32
2016-07-21T04:48:07.787Z,23.58
2016-07-21T04:49:07.819Z,23.78
2016-07-21T04:50:07.776Z,23.93
2016-07-21T04:51:07.784Z,24.18
2016-07-21T04:52:07.802Z,24.29
2016-07-21T04:53:07.810Z,24.36
2016-07-21T04:54:07.802Z,24.69
2016-07-21T04:55:07.807Z,24.65
2016-07-21T04:56:07.835Z,24.84
2016-07-21T04:57:07.820Z,24.99
2016-07-21T04:58:07.820Z,25.04
2016-07-21T04:59:07.819Z,25.03
2016-07-21T05:00:07.830Z,25.13
2016-07-21T05:01:08.761Z,25.04
2016-07-21T05:02:07.825Z,25.33
2016-07-21T05:03:07.823Z,25.43
2016-07-21T05:04:07.834Z,25.69
2016-07-21T05:05:07.828Z,25.77
2016-07-21T05:06:07.818Z,25.95
2016-07-21T05:07:07.818Z,26.05
2016-07-21T05:08:07.849Z,25.98
2016-07-21T05:09:07.811Z,26.26
2016-07-21T05:10:07.818Z,26.26
2016-07-21T05:11:07.888Z,26.31
2016-07-21T05:12:07.874Z,26.37
2016-07-21T05:13:07.867Z,26.15
2016-07-21T05:14:07.822Z,26.25
2016-07-21T05:15:07.863Z,26.25
2016-07-21T05:16:07.799Z,26.29
2016-07-21T05:17:07.838Z,26.41
2016-07-21T05:18:07.856Z,26.28
2016-07-21T05:19:07.824Z,25.87
2016-07-21T05:20:07.826Z,25.59
2016-07-21T05:21:07.860Z,25.44
2016-07-21T05:22:07.840Z,25.21
2016-07-21T05:23:08.330Z,25.08
2016-07-21T05:24:07.883Z,24.98
2016-07-21T05:25:07.835Z,24.86
2016-07-21T05:26:07.844Z,25.01
2016-07-21T05:27:07.840Z,24.84
2016-07-21T05:28:07.847Z,24.58
2016-07-21T05:29:07.851Z,24.69
2016-07-21T05:30:07.823Z,24.7
2016-07-21T05:31:07.825Z,24.57
2016-07-21T05:32:07.837Z,24.65
2016-07-21T05:33:07.809Z,24.66
2016-07-21T05:34:07.810Z,24.78
2016-07-21T05:35:07.815Z,24.98
2016-07-21T05:36:07.859Z,25.29
2016-07-21T05:37:07.863Z,25.29
2016-07-21T05:38:07.809Z,25.21
2016-07-21T05:39:08.846Z,25.03
2016-07-21T05:40:08.479Z,25.23
2016-07-21T05:41:07.847Z,25.28
2016-07-21T05:42:07.879Z,25.11
2016-07-21T05:43:08.823Z,25.03
2016-07-21T05:44:07.844Z,25.06
2016-07-21T05:45:07.863Z,24.69
2016-07-21T05:46:07.863Z,24.55
2016-07-21T05:47:08.762Z,24.61
2016-07-21T05:48:07.838Z,24.89
2016-07-21T05:49:07.848Z,25.28
2016-07-21T05:50:07.858Z,25.53
2016-07-21T05:51:07.823Z,25.96
2016-07-21T05:52:07.877Z,26.23
2016-07-21T05:53:07.868Z,26.21
2016-07-21T05:54:08.018Z,26.22
2016-07-21T05:55:07.830Z,26.53
2016-07-21T05:56:07.831Z,26.71
2016-07-21T05:57:07.862Z,26.81
2016-07-21T05:58:07.831Z,26.85
2016-07-21T05:59:07.838Z,26.63
2016-07-21T06:00:07.877Z,26.63
2016-07-21T06:01:07.870Z,26.73
2016-07-21T06:02:07.917Z,26.71
2016-07-21T06:03:07.851Z,26.44
2016-07-21T06:04:07.834Z,26.09
2016-07-21T06:05:07.895Z,25.8
2016-07-21T06:06:07.955Z,25.83
2016-07-21T06:07:07.889Z,25.7
2016-07-21T06:08:07.862Z,25.65
2016-07-21T06:09:07.852Z,25.44
2016-07-21T06:10:07.836Z,25.26
2016-07-21T06:11:07.834Z,25.06
2016-07-21T06:12:07.860Z,24.89
2016-07-21T06:13:07.842Z,24.78
2016-07-21T06:14:08.100Z,24.69
2016-07-21T06:15:07.999Z,24.73
2016-07-21T06:16:07.878Z,24.68
2016-07-21T06:17:07.854Z,24.65
2016-07-21T06:18:07.928Z,24.55
2016-07-21T06:19:07.863Z,24.5
2016-07-21T06:20:07.841Z,24.51
2016-07-21T06:21:07.877Z,24.53
2016-07-21T06:22:07.854Z,24.61
2016-07-21T06:23:08.363Z,24.66
2016-07-21T06:24:07.881Z,24.66
2016-07-21T06:25:07.847Z,24.61
2016-07-21T06:26:07.852Z,24.65
2016-07-21T06:27:07.876Z,24.57
2016-07-21T06:28:07.877Z,24.55
2016-07-21T06:29:08.085Z,24.69
2016-07-21T06:30:07.993Z,24.66
2016-07-21T06:31:07.900Z,24.58
2016-07-21T06:43:25.640Z,24.85
2016-07-21T06:44:25.672Z,24.92
2016-07-21T06:45:25.574Z,24.99
2016-07-21T06:46:25.603Z,25.03
2016-07-21T06:47:25.861Z,24.99
2016-07-21T06:48:25.884Z,24.98
2016-07-21T06:49:25.648Z,24.93
2016-07-21T06:50:25.818Z,24.88
2016-07-21T06:51:25.681Z,24.98
2016-07-21T06:52:25.603Z,25.03
2016-07-21T06:53:25.675Z,25.03
2016-07-21T06:54:25.637Z,25.11
2016-07-21T06:55:25.835Z,25.07
2016-07-21T06:56:25.739Z,24.93
2016-07-21T06:57:25.660Z,24.91
2016-07-21T06:58:25.627Z,24.91
2016-07-21T06:59:25.751Z,24.96
2016-07-21T07:00:25.655Z,24.95
2016-07-21T07:01:25.707Z,25.03
2016-07-21T07:02:25.603Z,25.06
2016-07-21T07:03:25.572Z,25.1
2016-07-21T07:04:25.668Z,25.11
2016-07-21T07:05:25.807Z,25.18
2016-07-21T07:06:25.978Z,25.16
2016-07-21T07:07:25.726Z,25.18
2016-07-21T07:08:25.724Z,25.07
2016-07-21T07:09:25.698Z,24.89
2016-07-21T07:10:25.803Z,24.91
2016-07-21T07:11:25.687Z,24.77
2016-07-21T07:12:26.839Z,24.7
2016-07-21T07:13:25.582Z,24.76
2016-07-21T07:14:25.682Z,24.76
2016-07-21T07:15:25.583Z,24.88
2016-07-21T07:16:25.607Z,25.06
2016-07-21T07:17:25.621Z,25.16
2016-07-21T07:18:25.630Z,25.16
2016-07-21T07:19:25.899Z,25.31
2016-07-21T07:20:25.640Z,25.38
2016-07-21T07:21:25.580Z,25.32
2016-07-21T07:22:28.199Z,25.43
2016-07-21T07:23:25.652Z,25.44
2016-07-21T07:24:25.767Z,25.54
2016-07-21T07:25:25.951Z,25.55
2016-07-21T07:26:25.714Z,25.54
2016-07-21T07:27:25.663Z,25.65
2016-07-21T07:28:25.846Z,25.53
2016-07-21T07:29:26.567Z,25.6
2016-07-21T07:30:52.025Z,25.72
2016-07-21T07:31:25.610Z,25.7
2016-07-21T07:32:26.518Z,25.75
2016-07-21T07:33:25.656Z,25.59
2016-07-21T07:34:25.683Z,25.75
2016-07-21T07:35:25.636Z,25.69
2016-07-21T07:36:25.615Z,25.77
2016-07-21T07:37:25.679Z,25.72
2016-07-21T07:38:25.729Z,25.73
2016-07-21T07:39:26.590Z,25.83
2016-07-21T07:40:25.685Z,25.84
2016-07-21T07:41:28.128Z,25.9
2016-07-21T07:42:27.806Z,25.72
2016-07-21T07:43:28.423Z,25.68
2016-07-21T07:44:43.811Z,25.81
2016-07-21T07:45:25.813Z,25.85
2016-07-21T07:46:29.064Z,25.96
2016-07-21T07:47:25.899Z,25.99
2016-07-21T07:48:25.692Z,26
2016-07-21T07:49:25.677Z,25.8
2016-07-21T07:50:25.652Z,25.9
2016-07-21T07:51:26.191Z,26.21
2016-07-21T07:52:25.759Z,26.75
2016-07-21T07:53:26.832Z,27.36
2016-07-21T07:54:25.691Z,28.02
2016-07-21T07:55:27.811Z,28.82
2016-07-21T07:56:27.422Z,29.08
2016-07-21T07:57:26.550Z,29.81
2016-07-21T07:58:39.110Z,30.37
2016-07-21T07:59:25.895Z,30.47
2016-07-21T08:00:28.651Z,31.05
2016-07-21T08:01:25.648Z,31.77
2016-07-21T08:02:25.682Z,32.4
2016-07-21T08:03:35.947Z,32.3
2016-07-21T08:04:26.260Z,32.34
2016-07-21T08:05:25.754Z,32.4
2016-07-21T08:06:25.768Z,32.9
2016-07-21T08:07:25.642Z,33.15
2016-07-21T08:08:26.880Z,32.67
2016-07-21T08:09:25.866Z,31.89
2016-07-21T08:10:39.789Z,32.26
2016-07-21T08:20:26.537Z,32.89
2016-07-21T08:20:43.780Z,32.07
2016-07-21T08:21:43.726Z,32.03
2016-07-21T08:22:43.819Z,31.87
2016-07-21T08:23:43.766Z,32.03
2016-07-21T08:24:44.269Z,32.64
2016-07-21T08:25:45.039Z,32.77
2016-07-21T08:26:43.883Z,32.67
2016-07-21T08:27:43.853Z,32.71
2016-07-21T08:28:43.844Z,32.73
2016-07-21T08:29:43.847Z,32.77
2016-07-21T08:30:43.873Z,33.04
2016-07-21T08:31:43.969Z,33.74
2016-07-21T08:32:45.263Z,33.84
2016-07-21T08:33:44.045Z,34.13
2016-07-21T08:34:43.878Z,34.05
2016-07-21T08:36:12.752Z,34.25
2016-07-21T08:36:47.636Z,34.33
2016-07-21T08:37:43.891Z,34.62
2016-07-21T08:38:43.827Z,34.95
2016-07-21T08:39:44.122Z,34.8
2016-07-21T08:40:43.926Z,35.02
2016-07-21T08:41:44.123Z,34.88
2016-07-21T08:42:44.137Z,34.6
2016-07-21T08:43:44.895Z,34.55
2016-07-21T08:44:44.121Z,35.11
2016-07-21T08:45:43.902Z,34.96
2016-07-21T08:46:44.004Z,35.05
2016-07-21T08:47:52.268Z,35.1
2016-07-21T08:48:44.073Z,35.18
2016-07-21T08:49:43.957Z,34.99
2016-07-21T08:50:43.875Z,35
2016-07-21T08:51:54.397Z,34.78
2016-07-21T09:04:12.255Z,34.93
2016-07-21T09:05:12.228Z,35.02
2016-07-21T09:06:12.241Z,34.27
2016-07-21T09:07:12.404Z,34.01
2016-07-21T09:08:12.232Z,34.32
2016-07-21T09:09:12.415Z,34.36
2016-07-21T09:10:12.390Z,34.66
2016-07-21T09:11:12.345Z,35.12
2016-07-21T09:12:12.450Z,34.64
2016-07-21T09:13:13.595Z,34.73
2016-07-21T09:14:12.170Z,35.08
2016-07-21T09:15:12.213Z,35.23
2016-07-21T09:16:12.170Z,35.18
2016-07-21T09:17:12.392Z,35.42
2016-07-21T09:18:12.211Z,35.44
2016-07-21T09:19:12.237Z,35.49
2016-07-21T09:20:12.733Z,35.27
2016-07-21T09:21:12.320Z,35.34
2016-07-21T09:22:12.208Z,35.63
2016-07-21T09:23:12.440Z,35
2016-07-21T09:24:12.191Z,34.08
2016-07-21T09:25:11.959Z,33.77
2016-07-21T09:26:12.311Z,33.02
2016-07-21T09:27:12.203Z,32.68
2016-07-21T09:28:12.322Z,32.45
2016-07-21T09:29:27.753Z,31.74
2016-07-21T09:30:12.295Z,31.55
2016-07-21T09:31:12.293Z,31.9
2016-07-21T09:32:12.209Z,32.23
2016-07-21T09:33:12.221Z,32.04
2016-07-21T09:34:12.368Z,31.94
2016-07-21T09:35:12.535Z,31.71
2016-07-21T09:36:12.506Z,31.52
2016-07-21T09:37:13.471Z,31.47
2016-07-21T09:38:12.298Z,31.36
2016-07-21T09:39:12.541Z,31.15
2016-07-21T09:40:12.248Z,30.69
2016-07-21T09:41:12.590Z,30.61
2016-07-21T09:42:12.353Z,30.35
2016-07-21T09:43:12.299Z,30.32
2016-07-21T09:44:11.750Z,30.48
2016-07-21T09:45:13.131Z,30.06
2016-07-21T09:46:12.343Z,30.37
2016-07-21T09:47:12.185Z,31.02
2016-07-21T09:48:12.534Z,31.7
2016-07-21T09:49:12.296Z,32.4
2016-07-21T09:50:12.341Z,32.58
2016-07-21T09:51:15.405Z,32.36
2016-07-21T09:52:12.317Z,32.41
2016-07-21T09:53:12.235Z,32.07
2016-07-21T09:54:12.435Z,32.3
2016-07-21T09:55:12.568Z,32.03
2016-07-21T09:56:12.306Z,32.4
2016-07-21T09:57:12.446Z,32.75
2016-07-21T09:58:12.328Z,32.89
2016-07-21T09:59:12.300Z,33.02
2016-07-21T10:00:12.293Z,33.14
2016-07-21T10:01:12.340Z,33.86
2016-07-21T10:02:12.312Z,33.96
2016-07-21T10:03:12.486Z,33.96
2016-07-21T10:04:12.492Z,33.01
2016-07-21T10:05:15.576Z,31.73
2016-07-21T10:06:12.267Z,31.18
2016-07-21T10:07:12.417Z,31.1
2016-07-21T10:08:12.293Z,31.61
2016-07-21T10:09:12.322Z,31.55
2016-07-21T10:10:12.308Z,31.28
2016-07-21T10:11:12.849Z,30.91
2016-07-21T10:12:12.244Z,30.73
2016-07-21T10:13:16.056Z,30.68
2016-07-21T10:14:11.798Z,30.66
2016-07-21T10:15:12.247Z,30.23
2016-07-21T10:16:12.353Z,30.12
2016-07-21T10:17:12.468Z,30.19
2016-07-21T10:18:12.290Z,30.13
2016-07-21T10:19:12.263Z,30.09
2016-07-21T10:20:12.439Z,30.18
2016-07-21T10:21:12.305Z,30
2016-07-21T10:22:12.244Z,30.7
2016-07-21T10:23:12.276Z,31.66
2016-07-21T10:24:12.318Z,31.65
2016-07-21T10:25:12.239Z,31.56
2016-07-21T10:26:12.205Z,31.89
2016-07-21T10:27:13.440Z,32.22
2016-07-21T10:28:12.273Z,32.64
2016-07-21T10:29:12.219Z,32.37
2016-07-21T10:30:12.335Z,32.33
2016-07-21T10:31:12.314Z,32
2016-07-21T10:32:12.370Z,31.61
2016-07-21T10:33:12.282Z,31.52
2016-07-21T10:34:13.831Z,31.27
2016-07-21T10:35:12.227Z,31.43
2016-07-21T10:36:12.215Z,31.73
2016-07-21T10:37:12.236Z,32.52
2016-07-21T10:38:12.241Z,32.53
2016-07-21T10:39:12.390Z,32.04
2016-07-21T10:40:12.292Z,31.74
2016-07-21T10:41:12.276Z,31.05
2016-07-21T10:42:12.365Z,30.96
2016-07-21T10:43:12.309Z,30.3
2016-07-21T10:44:12.415Z,30.19
2016-07-21T10:45:12.260Z,30.19
2016-07-21T10:46:12.410Z,30.15
2016-07-21T10:47:12.276Z,30.48
2016-07-21T10:48:12.246Z,31.54
2016-07-21T10:49:12.376Z,32.31
2016-07-21T10:50:12.338Z,32.67
2016-07-21T10:51:12.373Z,33.4
2016-07-21T10:52:12.274Z,33.58
2016-07-21T10:53:12.282Z,33.46
2016-07-21T10:54:12.269Z,32.18
2016-07-21T10:55:12.283Z,31.69
2016-07-21T10:56:12.301Z,31.49
2016-07-21T10:57:12.266Z,31.77
2016-07-21T10:58:12.331Z,31.65
2016-07-21T10:59:12.327Z,31.14
2016-07-21T11:00:12.355Z,30.51
2016-07-21T11:01:12.318Z,30.44
2016-07-21T11:02:12.240Z,30.5
2016-07-21T11:03:12.311Z,30.44
2016-07-21T11:04:12.228Z,30.44
2016-07-21T11:05:12.256Z,30.34
2016-07-21T11:06:12.273Z,31.21
2016-07-21T11:07:12.260Z,32.07
2016-07-21T11:08:12.251Z,32.63
2016-07-21T11:09:25.026Z,32.03
2016-07-21T11:10:12.268Z,31.73
2016-07-21T11:11:12.251Z,31.92
2016-07-21T11:12:12.282Z,32.87
2016-07-21T11:13:12.443Z,33.71
2016-07-21T11:14:12.286Z,33.77
2016-07-21T11:15:12.407Z,33.58
2016-07-21T11:16:12.319Z,33.5
2016-07-21T11:17:12.426Z,33.15
2016-07-21T11:18:12.560Z,32.55
2016-07-21T11:19:12.291Z,32.18
2016-07-21T11:20:12.301Z,31.92
2016-07-21T11:21:12.292Z,31.52
2016-07-21T11:22:12.298Z,31.12
2016-07-21T11:23:17.076Z,31.12
2016-07-21T11:24:12.311Z,31.44
2016-07-21T11:25:12.296Z,32.43
2016-07-21T11:26:12.298Z,33.23
2016-07-21T11:27:12.422Z,34.17
2016-07-21T11:28:12.307Z,34.99
2016-07-21T11:29:12.359Z,35.11
2016-07-21T11:30:12.238Z,35.56
2016-07-21T11:31:12.399Z,35.58
2016-07-21T11:32:12.295Z,35.11
2016-07-21T11:33:12.303Z,34.42
2016-07-21T11:34:12.302Z,33.94
2016-07-21T11:35:12.299Z,33.92
2016-07-21T11:36:12.282Z,33.09
2016-07-21T11:37:12.285Z,32.07
2016-07-21T11:38:15.878Z,32.04
2016-07-21T11:39:12.316Z,32.74
2016-07-21T11:40:12.301Z,32.93
2016-07-21T11:41:12.436Z,33.01
2016-07-21T11:42:12.331Z,33.28
2016-07-21T11:43:12.361Z,33.77
2016-07-21T11:44:12.332Z,33.58
2016-07-21T11:45:12.500Z,32.83
2016-07-21T11:46:12.245Z,32.04
2016-07-21T11:47:12.358Z,31.9
2016-07-21T11:48:12.320Z,31.99
2016-07-21T11:49:12.302Z,32.09
2016-07-21T11:50:12.284Z,31.9
2016-07-21T11:51:12.335Z,31.51
2016-07-21T11:52:12.304Z,31.03
2016-07-21T11:53:14.714Z,30.72
2016-07-21T11:54:12.319Z,30.48
2016-07-21T11:55:12.439Z,30.12
2016-07-21T11:56:12.352Z,30.1
2016-07-21T11:57:12.431Z,29.69
2016-07-21T11:58:12.291Z,29.32
2016-07-21T11:59:12.342Z,29.12
2016-07-21T12:00:12.442Z,28.79
2016-07-21T12:01:12.265Z,28.81
2016-07-21T12:02:12.268Z,28.78
2016-07-21T12:03:12.359Z,28.86
2016-07-21T12:04:12.308Z,29.07
2016-07-21T12:05:12.350Z,29.07
2016-07-21T12:06:12.333Z,29.01
2016-07-21T12:07:12.354Z,28.84
2016-07-21T12:08:12.272Z,28.74
2016-07-21T12:09:12.414Z,28.72
2016-07-21T12:10:12.314Z,28.66
2016-07-21T12:11:12.376Z,29.38
2016-07-21T12:12:12.298Z,30.4
2016-07-21T12:13:12.307Z,31.44
2016-07-21T12:14:12.293Z,32.3
2016-07-21T12:15:12.334Z,33.05
2016-07-21T12:16:12.316Z,33.83
2016-07-21T12:17:13.830Z,33.86
2016-07-21T12:18:12.304Z,33.28
2016-07-21T12:19:12.375Z,32.74
2016-07-21T12:20:12.411Z,32.14
2016-07-21T12:21:12.296Z,31.81
2016-07-21T12:22:17.093Z,31.09
2016-07-21T12:23:12.432Z,30.3
2016-07-21T12:24:12.427Z,30.27
2016-07-21T12:25:12.568Z,30.31
2016-07-21T12:26:12.301Z,30.69
2016-07-21T12:27:12.342Z,31.7
2016-07-21T12:28:12.321Z,32.53
2016-07-21T12:29:12.371Z,33.31
2016-07-21T12:30:12.321Z,33.4
2016-07-21T12:31:12.365Z,32.6
2016-07-21T12:32:12.315Z,32.14
2016-07-21T12:33:12.538Z,32.22
2016-07-21T12:34:14.616Z,32.26
2016-07-21T12:35:12.401Z,32.37
2016-07-21T12:36:12.381Z,32.82
2016-07-21T12:37:12.363Z,33.58
2016-07-21T12:38:12.554Z,33.9
2016-07-21T12:39:12.348Z,34.1
2016-07-21T12:40:12.334Z,32.77
2016-07-21T12:41:12.337Z,32.22
2016-07-21T12:42:12.310Z,32.03
2016-07-21T12:43:12.370Z,31.64
2016-07-21T12:44:12.359Z,31.7
2016-07-21T12:45:12.356Z,32.21
2016-07-21T12:46:13.632Z,32.59
2016-07-21T12:47:12.373Z,32.19
2016-07-21T12:48:12.332Z,31.52
2016-07-21T12:49:12.349Z,31.33
2016-07-21T12:50:12.313Z,31.77
2016-07-21T12:51:12.372Z,31.92
2016-07-21T12:52:12.483Z,32.27
2016-07-21T12:53:12.359Z,32.86
2016-07-21T12:54:12.336Z,33.12
2016-07-21T12:55:12.338Z,33.11
2016-07-21T12:56:12.287Z,32.8
2016-07-21T12:57:12.368Z,32.55
2016-07-21T12:58:12.329Z,32.36
2016-07-21T12:59:12.359Z,32.45
2016-07-21T13:00:12.354Z,32.77
2016-07-21T13:01:12.330Z,33.37
2016-07-21T13:02:12.308Z,33.5
2016-07-21T13:03:12.333Z,33.58
2016-07-21T13:04:12.346Z,33.46
2016-07-21T13:05:12.642Z,33.68
2016-07-21T13:06:12.398Z,34.03
2016-07-21T13:07:15.683Z,34.01
2016-07-21T13:08:12.458Z,33.68
2016-07-21T13:20:30.030Z,30
2016-07-21T13:21:29.981Z,30.15
2016-07-21T13:22:30.012Z,30.16
2016-07-21T13:23:30.048Z,30.12
2016-07-21T13:24:30.514Z,30.16
2016-07-21T13:25:30.074Z,30.09
2016-07-21T13:26:30.058Z,30.06
2016-07-21T13:27:30.114Z,30.55
2016-07-21T13:28:30.220Z,31.17
2016-07-21T13:29:29.991Z,31.27
2016-07-21T13:30:29.972Z,31.4
2016-07-21T13:31:30.102Z,31.99
2016-07-21T13:32:30.183Z,32.67
2016-07-21T13:33:30.004Z,33.27
2016-07-21T13:34:29.985Z,33.58
2016-07-21T13:35:30.174Z,33.22
2016-07-21T13:36:30.133Z,33.31
2016-07-21T13:37:30.233Z,33.79
2016-07-21T13:38:30.055Z,34.08
2016-07-21T13:39:29.988Z,34.18
2016-07-21T13:40:29.937Z,33.76
2016-07-21T13:41:30.040Z,33.77
2016-07-21T13:42:29.992Z,34.05
2016-07-21T13:43:30.378Z,33.99
2016-07-21T13:44:30.057Z,34.02
2016-07-21T13:45:31.004Z,34.14
2016-07-21T13:46:30.754Z,34.2
2016-07-21T13:47:29.985Z,34.33
2016-07-21T13:48:30.015Z,34.83
2016-07-21T13:49:29.956Z,34.88
2016-07-21T13:50:29.996Z,34.3
2016-07-21T13:51:30.083Z,34.27
2016-07-21T13:52:29.964Z,34.62
2016-07-21T13:53:30.015Z,34.88
2016-07-21T13:54:30.034Z,34.92
2016-07-21T13:55:29.991Z,34.25
2016-07-21T13:56:30.349Z,33.58
2016-07-21T13:57:30.026Z,33.07
2016-07-21T13:58:30.132Z,32.22
2016-07-21T13:59:30.043Z,31.29
2016-07-21T14:00:30.491Z,30.87
2016-07-21T14:01:30.003Z,30.59